createdAt,value
2023-03-23T15:58:34.477Z,100230.28
2023-03-23T16:01:11.695Z,100236.63
2023-03-23T16:03:43.771Z,100213.34
2023-03-23T16:06:12.787Z,100212.44
2023-03-23T16:08:54.028Z,100203.06
2023-03-23T16:11:25.363Z,100205.47
2023-03-23T16:13:54.120Z,100190.63
2023-03-23T16:16:27.073Z,100189.00
2023-03-23T16:18:54.667Z,100187.00
2023-03-23T16:21:22.659Z,100188.09
2023-03-23T16:23:49.959Z,100186.03
2023-03-23T16:26:17.548Z,100203.47
2023-03-23T16:28:45.216Z,100209.31
2023-03-23T16:31:14.189Z,100202.84
2023-03-23T16:33:44.501Z,100212.06
2023-03-23T16:36:13.454Z,100226.13
2023-03-23T16:38:50.124Z,100226.84
2023-03-23T16:41:18.960Z,100225.16
2023-03-23T16:43:47.104Z,100228.78
2023-03-23T16:51:30.317Z,100222.63
2023-03-23T16:54:33.776Z,100217.19
2023-03-23T16:58:57.177Z,100215.09
2023-03-23T17:00:32.935Z,100214.19
2023-03-23T17:03:48.249Z,100230.19
2023-03-23T17:06:22.056Z,100225.81
2023-03-23T17:09:07.516Z,100231.50
2023-03-23T17:13:17.633Z,100248.34
2023-03-23T17:26:25.736Z,100259.41
2023-03-23T17:30:23.492Z,100266.00
2023-03-23T17:33:22.220Z,100262.66
2023-03-23T17:36:03.163Z,100261.13
2023-03-23T17:38:39.394Z,100257.53
2023-03-23T17:41:11.298Z,100263.91
2023-03-23T17:43:53.183Z,100263.53
2023-03-23T17:46:21.977Z,100272.22
2023-03-23T17:49:07.706Z,100279.63
2023-03-23T17:57:41.195Z,100285.69
2023-03-23T18:00:27.332Z,100296.25
2023-03-23T18:02:59.532Z,100299.50
2023-03-23T18:05:51.787Z,100310.72
2023-03-23T18:08:27.000Z,100305.06
2023-03-23T18:11:03.326Z,100297.09
2023-03-23T18:13:53.106Z,100298.13
2023-03-23T18:16:33.776Z,100281.44
2023-03-23T18:19:14.312Z,100279.09
2023-03-23T18:21:51.665Z,100276.78
2023-03-23T18:24:18.942Z,100278.88
2023-03-23T18:26:45.964Z,100276.22
2023-03-23T18:29:14.468Z,100273.44
2023-03-23T18:31:41.577Z,100272.84
2023-03-23T18:34:08.722Z,100274.00
2023-03-23T18:36:36.373Z,100281.41
2023-03-23T18:39:06.206Z,100287.53
2023-03-23T18:41:33.219Z,100287.88
2023-03-23T18:44:00.227Z,100284.53
2023-03-23T18:46:29.660Z,100288.00
2023-03-23T18:48:57.566Z,100289.50
2023-03-23T18:51:26.138Z,100289.25
2023-03-23T18:53:53.372Z,100290.00
2023-03-23T18:56:21.019Z,100287.81
2023-03-23T18:58:48.100Z,100287.81
2023-03-23T19:01:17.547Z,100287.13
2023-03-23T19:03:46.632Z,100294.28
2023-03-23T19:06:20.132Z,100291.06
2023-03-23T19:08:48.537Z,100298.44
2023-03-23T19:11:17.080Z,100288.34
2023-03-23T19:13:58.376Z,100285.19
2023-03-23T19:16:28.591Z,100279.22
2023-03-23T19:18:57.130Z,100283.72
2023-03-23T19:21:25.504Z,100281.97
2023-03-23T19:23:53.765Z,100276.66
2023-03-23T19:26:26.938Z,100275.00
2023-03-23T19:29:24.314Z,100270.16
2023-03-23T19:31:42.742Z,100259.41
2023-03-23T19:34:13.209Z,100260.06
2023-03-23T19:36:40.897Z,100252.53
2023-03-23T19:39:08.860Z,100256.31
2023-03-23T19:41:36.946Z,100254.41
2023-03-23T19:44:05.750Z,100247.47
2023-03-23T19:46:33.200Z,100252.78
2023-03-23T19:49:01.043Z,100263.38
2023-03-23T19:51:29.871Z,100258.09
2023-03-23T19:53:59.541Z,100258.09
2023-03-23T19:56:28.910Z,100256.00
2023-03-23T19:58:56.693Z,100238.25
2023-03-23T20:01:24.096Z,100232.94
2023-03-23T20:03:51.674Z,100240.09
2023-03-23T20:06:20.116Z,100231.97
2023-03-23T20:08:48.736Z,100225.06
2023-03-23T20:11:20.831Z,100228.16
2023-03-23T20:13:49.090Z,100235.53
2023-03-23T20:16:17.765Z,100245.56
2023-03-23T20:18:47.238Z,100246.72
2023-03-23T20:21:19.766Z,100245.84
2023-03-23T20:23:51.676Z,100233.16
2023-03-23T20:26:23.263Z,100233.16
2023-03-23T20:28:50.532Z,100233.31
2023-03-23T20:31:24.328Z,100232.63
2023-03-23T20:34:00.832Z,100231.38
2023-03-23T20:36:34.360Z,100226.28
2023-03-23T20:39:05.586Z,100224.59
2023-03-23T20:41:35.760Z,100227.97
2023-03-23T20:44:03.919Z,100228.09
2023-03-23T20:46:31.554Z,100228.69
2023-03-23T20:48:58.740Z,100220.47
2023-03-23T20:51:25.751Z,100214.38
2023-03-23T20:53:53.177Z,100211.13
2023-03-23T20:56:22.305Z,100213.19
2023-03-23T20:58:49.603Z,100213.19
2023-03-23T21:01:16.866Z,100212.75
2023-03-23T21:03:44.397Z,100210.69
2023-03-23T21:06:11.849Z,100195.19
2023-03-23T21:08:40.839Z,100197.25
2023-03-23T21:11:10.215Z,100189.88
2023-03-23T21:13:38.554Z,100191.50
2023-03-23T21:16:07.470Z,100188.59
2023-03-23T21:18:35.006Z,100188.59
2023-03-23T21:21:02.496Z,100172.47
2023-03-23T21:23:33.525Z,100181.00
2023-03-23T21:26:13.612Z,100172.59
2023-03-23T21:28:42.363Z,100170.53
2023-03-23T21:31:14.874Z,100166.81
2023-03-23T21:33:42.388Z,100161.97
2023-03-23T21:36:10.630Z,100158.25
2023-03-23T21:38:38.295Z,100159.91
2023-03-23T21:41:09.189Z,100151.09
2023-03-23T21:43:36.462Z,100147.63
2023-03-23T21:46:08.803Z,100142.31
2023-03-23T21:48:42.060Z,100132.50
2023-03-23T21:51:21.164Z,100134.34
2023-03-23T21:53:48.242Z,100128.47
2023-03-23T21:56:15.640Z,100127.44
2023-03-23T21:58:42.970Z,100113.69
2023-03-23T22:01:12.853Z,100116.13
2023-03-23T22:03:59.131Z,100110.56
2023-03-23T22:06:44.930Z,100105.88
2023-03-23T22:09:12.437Z,100095.81
2023-03-23T22:11:41.304Z,100104.97
2023-03-23T22:14:08.610Z,100104.72
2023-03-23T22:16:37.087Z,100094.91
2023-03-23T22:19:04.368Z,100095.50
2023-03-23T22:21:31.708Z,100090.19
2023-03-23T22:24:00.774Z,100081.19
2023-03-23T22:26:29.937Z,100080.25
2023-03-23T22:28:58.808Z,100077.22
2023-03-23T22:31:29.178Z,100082.53
2023-03-23T22:33:57.921Z,100065.81
2023-03-23T22:36:28.159Z,100053.16
2023-03-23T22:38:56.387Z,100063.00
2023-03-23T22:41:28.083Z,100050.97
2023-03-23T22:43:55.716Z,100047.75
2023-03-23T22:46:23.182Z,100046.69
2023-03-23T22:48:50.131Z,100046.22
2023-03-23T22:51:20.169Z,100034.38
2023-03-23T22:53:47.947Z,100032.66
2023-03-23T22:56:16.546Z,100031.84
2023-03-23T22:58:44.368Z,100036.34
2023-03-23T23:01:15.595Z,100031.03
2023-03-23T23:03:44.560Z,100033.09
2023-03-23T23:06:13.619Z,100028.13
2023-03-23T23:08:42.752Z,100022.91
2023-03-23T23:11:13.703Z,100019.00
2023-03-23T23:13:41.536Z,100006.38
2023-03-23T23:16:10.829Z,100008.13
2023-03-23T23:18:40.023Z,100003.31
2023-03-23T23:21:11.615Z,100002.25
2023-03-23T23:23:41.454Z,100002.50
2023-03-23T23:26:09.604Z,99996.94
2023-03-23T23:28:36.901Z,99983.03
2023-03-23T23:31:06.172Z,99988.97
2023-03-23T23:33:33.312Z,99985.50
2023-03-23T23:36:00.312Z,99979.97
2023-03-23T23:38:27.335Z,99969.09
2023-03-23T23:40:55.662Z,99976.63
2023-03-23T23:43:22.621Z,99976.47
2023-03-23T23:45:49.562Z,99973.25
2023-03-23T23:48:16.821Z,99967.13
2023-03-23T23:50:43.963Z,99964.78
2023-03-23T23:53:12.843Z,99963.88
2023-03-23T23:55:40.301Z,99963.06
2023-03-23T23:58:08.625Z,99958.69
